Time;durP1;ratioP1;P1;durP2;ratioP2;P2;SDS_P1;SDS_P2;PMS_P1;PMS_P2;Temp;Humidity;BMP_temperature;BMP_pressure;BME280_temperature;BME280_humidity;BME280_pressure;Samples;Min_cycle;Max_cycle;Signal;HPM_P1;HPM_P2
2022/02/21 00:02:12;;;;;;;1.83;0.60;;;;;;;19.03;53.07;100538.00;4980556;28;20442;-55
2022/02/21 00:04:38;;;;;;;1.95;0.90;;;;;;;19.02;53.23;100531.09;4979566;28;20038;-53
2022/02/21 00:07:04;;;;;;;2.28;0.77;;;;;;;19.01;53.18;100527.66;4980506;28;20061;-47
2022/02/21 00:09:30;;;;;;;1.90;0.90;;;;;;;19.01;53.04;100527.66;4980491;28;20073;-49
2022/02/21 00:11:55;;;;;;;2.50;1.15;;;;;;;19.00;53.06;100519.94;4975831;28;20109;-53
2022/02/21 00:14:21;;;;;;;2.03;0.80;;;;;;;18.99;53.39;100516.47;4983768;28;20485;-52
2022/02/21 00:16:46;;;;;;;2.00;0.68;;;;;;;18.99;53.51;100516.47;4978923;28;20038;-47
2022/02/21 00:19:12;;;;;;;11.05;0.85;;;;;;;18.98;53.39;100506.94;4976388;28;20034;-47
2022/02/21 00:21:37;;;;;;;2.00;0.60;;;;;;;18.97;53.50;100504.47;4976143;28;20382;-51
2022/02/21 00:24:03;;;;;;;2.65;0.77;;;;;;;18.98;53.33;100503.47;4979896;28;20615;-54
2022/02/21 00:26:29;;;;;;;2.40;0.65;;;;;;;18.96;53.36;100498.38;4975629;28;20084;-55
2022/02/21 00:28:54;;;;;;;1.55;0.68;;;;;;;18.96;53.46;100493.09;4981552;28;20165;-55
2022/02/21 00:31:20;;;;;;;4.97;1.33;;;;;;;18.96;53.28;100501.03;4977304;28;20046;-43
2022/02/21 00:33:46;;;;;;;2.67;0.63;;;;;;;18.97;53.10;100493.91;4959567;28;20046;-53
2022/02/21 00:36:11;;;;;;;3.60;1.20;;;;;;;18.97;53.11;100488.66;4983086;28;20171;-52
2022/02/21 00:38:37;;;;;;;1.50;0.70;;;;;;;18.96;53.26;100489.66;4976398;28;20247;-47
2022/02/21 00:41:03;;;;;;;3.17;0.93;;;;;;;18.97;53.23;100488.66;4981396;28;20451;-54
2022/02/21 00:43:29;;;;;;;2.92;0.77;;;;;;;18.96;53.29;100481.72;4982350;28;20018;-52
2022/02/21 00:45:54;;;;;;;2.15;0.90;;;;;;;18.96;53.22;100479.09;4976972;28;20505;-56
2022/02/21 00:48:20;;;;;;;1.75;0.70;;;;;;;18.96;53.30;100471.19;4980616;28;20147;-46
2022/02/21 00:50:46;;;;;;;1.58;0.80;;;;;;;18.95;53.20;100467.72;4981906;28;20042;-55
2022/02/21 00:53:11;;;;;;;2.80;0.88;;;;;;;18.95;53.36;100467.72;4976662;28;20084;-46
2022/02/21 00:55:37;;;;;;;2.03;0.80;;;;;;;18.95;53.28;100474.81;4983229;28;20038;-54
2022/02/21 00:58:03;;;;;;;1.88;0.70;;;;;;;18.94;53.40;100473.19;4965627;28;20044;-56
2022/02/21 01:00:29;;;;;;;1.85;0.65;;;;;;;18.93;53.39;100461.00;4981838;28;20088;-47
2022/02/21 01:02:55;;;;;;;0.80;0.43;;;;;;;18.92;53.38;100460.19;4980041;28;20149;-45
2022/02/21 01:05:22;;;;;;;2.67;0.75;;;;;;;18.92;53.31;100464.66;4988427;28;20018;-47
2022/02/21 01:07:47;;;;;;;1.50;0.68;;;;;;;18.90;53.48;100451.69;4987711;28;20037;-49
2022/02/21 01:10:13;;;;;;;1.40;0.70;;;;;;;18.90;53.54;100446.41;4986680;28;20498;-60
2022/02/21 01:12:39;;;;;;;1.80;0.65;;;;;;;18.89;53.67;100445.59;4991442;28;20097;-55
2022/02/21 01:15:05;;;;;;;1.45;0.80;;;;;;;18.89;53.49;100450.06;4974371;28;20050;-47
2022/02/21 01:17:31;;;;;;;2.30;0.65;;;;;;;18.87;53.65;100442.34;4969281;28;20134;-56
2022/02/21 01:19:59;;;;;;;2.03;0.73;;;;;;;18.86;53.49;100430.16;4967131;28;20914;-51
2022/02/21 01:22:25;;;;;;;1.98;0.60;;;;;;;18.85;53.52;100425.88;4954365;28;20133;-58
2022/02/21 01:24:51;;;;;;;1.20;0.80;;;;;;;18.86;53.42;100419.59;4972422;28;20181;-48
2022/02/21 01:27:16;;;;;;;1.92;0.60;;;;;;;18.84;53.08;100416.34;4968443;28;20035;-50
2022/02/21 01:29:42;;;;;;;1.42;0.70;;;;;;;18.84;53.31;100403.13;4968752;28;20038;-50
2022/02/21 01:32:09;;;;;;;1.30;0.77;;;;;;;18.85;53.39;100398.69;4970508;28;20108;-45
2022/02/21 01:34:35;;;;;;;1.17;0.43;;;;;;;18.84;53.52;100402.31;4971270;28;20093;-51
2022/02/21 01:37:00;;;;;;;1.52;0.52;;;;;;;18.84;53.26;100394.41;4970388;28;20712;-54
2022/02/21 01:39:26;;;;;;;1.45;0.80;;;;;;;18.84;53.31;100397.88;4969612;28;20184;-51
2022/02/21 01:41:51;;;;;;;1.40;0.50;;;;;;;18.85;53.31;100391.56;4967647;28;20034;-55
2022/02/21 01:44:17;;;;;;;2.15;0.73;;;;;;;18.85;53.28;100386.28;4969755;28;20023;-54
2022/02/21 01:46:44;;;;;;;1.35;0.52;;;;;;;18.86;53.29;100393.19;4969586;28;20515;-46
2022/02/21 01:49:11;;;;;;;1.30;0.68;;;;;;;18.86;53.36;100385.28;4968434;28;20094;-55
2022/02/21 01:51:38;;;;;;;1.20;0.80;;;;;;;18.88;53.35;100391.16;4968188;28;20029;-57
2022/02/21 01:54:09;;;;;;;1.88;1.00;;;;;;;18.86;53.30;100374.72;4956877;28;20034;-56
2022/02/21 01:56:36;;;;;;;1.33;0.73;;;;;;;18.86;53.33;100377.34;4965768;28;20593;-49
2022/02/21 01:59:03;;;;;;;1.40;1.02;;;;;;;18.87;53.28;100376.34;4963205;28;20570;-49
2022/02/21 02:01:29;;;;;;;1.35;0.70;;;;;;;18.87;53.28;100375.53;4951974;28;20061;-53
2022/02/21 02:03:54;;;;;;;1.70;0.90;;;;;;;18.86;53.25;100372.09;4968393;28;20491;-39
2022/02/21 02:06:21;;;;;;;1.27;0.60;;;;;;;18.86;53.38;100369.44;4981857;28;20070;-49
2022/02/21 02:08:47;;;;;;;1.88;0.95;;;;;;;18.87;53.36;100372.91;4958003;28;20113;-52
2022/02/21 02:13:43;;;;;;;1.85;0.60;;;;;;;18.84;53.37;100363.56;4967777;28;20477;-47
2022/02/21 02:16:09;;;;;;;1.90;0.80;;;;;;;18.85;53.41;100370.44;4970702;28;20026;-57
2022/02/21 02:18:34;;;;;;;1.85;0.70;;;;;;;18.84;53.33;100371.47;4970674;28;20531;-49
2022/02/21 02:21:00;;;;;;;1.92;0.70;;;;;;;18.83;53.30;100356.66;4952841;28;20031;-49
2022/02/21 02:23:25;;;;;;;1.30;0.90;;;;;;;18.83;53.36;100354.00;4970452;28;20117;-51
2022/02/21 02:25:50;;;;;;;1.20;0.60;;;;;;;18.81;53.07;100345.47;4970843;28;20133;-54
2022/02/21 02:28:16;;;;;;;2.47;0.80;;;;;;;18.82;53.23;100344.47;4970449;28;20045;-54
2022/02/21 02:30:41;;;;;;;0.98;0.60;;;;;;;18.81;53.38;100337.56;4970350;28;20073;-48
2022/02/21 02:33:07;;;;;;;1.60;0.88;;;;;;;18.80;53.22;100330.66;4970295;28;20030;-45
2022/02/21 02:35:34;;;;;;;2.25;0.70;;;;;;;18.80;53.16;100328.00;4970374;28;20131;-49
2022/02/21 02:38:01;;;;;;;1.23;0.63;;;;;;;18.79;53.26;100329.03;4970071;28;20490;-56
2022/02/21 02:40:27;;;;;;;1.15;0.80;;;;;;;18.78;53.41;100316.84;4969984;28;20030;-52
2022/02/21 02:42:53;;;;;;;1.45;0.70;;;;;;;18.79;53.20;100309.72;4970262;28;20375;-52
2022/02/21 02:45:19;;;;;;;3.72;0.90;;;;;;;18.78;53.25;100295.72;4970235;28;20078;-45
2022/02/21 02:47:44;;;;;;;1.40;0.90;;;;;;;18.77;53.26;100294.09;4970277;28;20041;-44
2022/02/21 02:50:10;;;;;;;2.83;0.90;;;;;;;18.76;53.18;100281.91;4969918;28;20031;-51
2022/02/21 02:52:35;;;;;;;1.40;0.98;;;;;;;18.77;53.02;100270.34;4970306;28;20042;-56
2022/02/21 02:55:01;;;;;;;1.42;0.82;;;;;;;18.77;53.10;100266.91;4970158;28;20128;-50
2022/02/21 02:57:26;;;;;;;1.58;0.98;;;;;;;18.77;53.20;100257.16;4969797;28;20190;-52
2022/02/21 02:59:53;;;;;;;2.22;0.85;;;;;;;18.76;53.22;100250.25;4969641;28;20062;-47
2022/02/21 03:02:19;;;;;;;2.47;1.25;;;;;;;18.77;53.07;100251.06;4952021;28;20399;-55
2022/02/21 03:04:44;;;;;;;1.10;0.65;;;;;;;18.77;53.15;100251.88;4969600;28;20045;-48
2022/02/21 03:07:10;;;;;;;1.50;0.80;;;;;;;18.76;53.23;100244.97;4969621;28;20129;-57
2022/02/21 03:09:36;;;;;;;1.77;1.27;;;;;;;18.76;53.29;100244.97;4969567;28;20035;-51
2022/02/21 03:12:01;;;;;;;1.95;1.23;;;;;;;18.76;53.21;100241.53;4969422;28;20042;-53
2022/02/21 03:14:27;;;;;;;1.63;0.80;;;;;;;18.75;53.15;100227.50;4969866;28;20038;-56
2022/02/21 03:16:53;;;;;;;1.65;1.10;;;;;;;18.75;53.14;100221.44;4968644;28;20496;-42
2022/02/21 03:19:19;;;;;;;1.10;0.60;;;;;;;18.75;53.17;100227.50;4969588;28;20242;-43
2022/02/21 03:21:46;;;;;;;1.80;0.80;;;;;;;18.74;53.21;100223.25;4969314;28;20034;-48
2022/02/21 03:24:12;;;;;;;1.65;0.93;;;;;;;18.74;53.15;100219.81;4969555;28;20046;-55
2022/02/21 03:26:37;;;;;;;1.75;1.02;;;;;;;18.72;53.14;100212.09;4969115;28;20447;-55
2022/02/21 03:29:03;;;;;;;1.40;0.50;;;;;;;18.72;53.17;100209.44;4969299;28;20031;-56
2022/02/21 03:31:29;;;;;;;1.23;0.68;;;;;;;18.70;53.18;100208.84;4969200;28;20054;-55
2022/02/21 03:33:54;;;;;;;1.45;0.98;;;;;;;18.69;53.24;100207.22;4969191;28;20403;-58
2022/02/21 03:36:20;;;;;;;2.50;0.73;;;;;;;18.69;53.25;100206.41;4969355;28;20062;-46
2022/02/21 03:38:45;;;;;;;1.40;0.93;;;;;;;18.69;53.08;100201.94;4968815;28;20023;-46
2022/02/21 03:41:11;;;;;;;1.65;0.70;;;;;;;18.70;53.17;100192.19;4969234;28;20030;-48
2022/02/21 03:43:37;;;;;;;1.52;1.05;;;;;;;18.67;53.27;100182.03;4968941;28;20042;-46
2022/02/21 03:46:02;;;;;;;1.30;0.82;;;;;;;18.68;53.20;100183.66;4968931;28;20141;-46
2022/02/21 03:48:28;;;;;;;1.65;0.68;;;;;;;18.67;53.14;100188.13;4969071;28;20161;-57
2022/02/21 03:50:53;;;;;;;1.52;0.82;;;;;;;18.66;53.14;100178.59;4968700;28;20403;-48
2022/02/21 03:53:19;;;;;;;1.67;1.00;;;;;;;18.67;53.18;100182.03;4969047;28;20035;-52
2022/02/21 03:55:45;;;;;;;1.75;1.00;;;;;;;18.66;53.16;100181.22;4968975;28;20042;-49
2022/02/21 03:58:11;;;;;;;1.77;1.13;;;;;;;18.66;53.20;100165.41;4951517;28;20108;-43
2022/02/21 04:00:36;;;;;;;1.77;1.10;;;;;;;18.67;53.07;100166.22;4969230;28;20368;-48
2022/02/21 04:03:02;;;;;;;1.75;0.85;;;;;;;18.67;53.00;100147.75;4968775;28;20037;-51
2022/02/21 04:05:27;;;;;;;1.17;0.60;;;;;;;18.67;53.07;100145.91;4968581;28;20101;-41
2022/02/21 04:07:54;;;;;;;1.60;0.93;;;;;;;18.67;52.99;100138.00;4968324;28;20386;-57
2022/02/21 04:10:19;;;;;;;1.40;0.85;;;;;;;18.68;53.09;100129.06;4968817;28;20019;-53
2022/02/21 04:12:45;;;;;;;1.65;0.95;;;;;;;18.67;52.99;100124.81;4968461;28;20453;-48
2022/02/21 04:15:11;;;;;;;1.65;0.80;;;;;;;18.68;52.93;100121.16;4968592;28;20448;-40
2022/02/21 04:17:55;;;;;;;1.58;0.80;;;;;;;18.66;53.08;100122.38;4968162;28;20122;-48
2022/02/21 04:20:22;;;;;;;1.13;0.80;;;;;;;18.67;52.98;100122.16;4968351;28;20118;-56
2022/02/21 04:22:48;;;;;;;2.60;1.17;;;;;;;18.67;53.10;100106.34;4968244;28;20561;-52
2022/02/21 04:25:14;;;;;;;1.83;0.88;;;;;;;18.68;53.01;100118.50;4968249;28;20043;-47
2022/02/21 04:27:42;;;;;;;1.48;0.70;;;;;;;18.67;52.83;100114.25;4968292;28;20287;-48
2022/02/21 04:30:08;;;;;;;1.52;1.02;;;;;;;18.67;53.08;100108.16;4967945;28;20035;-51
2022/02/21 04:32:36;;;;;;;1.90;1.05;;;;;;;18.66;53.06;100104.72;4968613;28;20086;-45
2022/02/21 04:35:02;;;;;;;2.30;1.10;;;;;;;18.66;52.79;100106.53;4950616;28;20041;-46
2022/02/21 04:37:28;;;;;;;1.80;1.30;;;;;;;18.66;52.98;100106.53;4968057;28;20034;-59
2022/02/21 04:39:53;;;;;;;1.92;0.90;;;;;;;18.65;52.99;100091.72;4967961;28;20414;-49
2022/02/21 04:42:19;;;;;;;1.80;1.00;;;;;;;18.63;52.92;100086.66;4968366;28;20146;-54
2022/02/21 04:44:44;;;;;;;2.80;0.77;;;;;;;18.64;53.05;100095.38;4967783;28;20451;-52
2022/02/21 04:47:10;;;;;;;1.27;0.68;;;;;;;18.65;53.06;100099.63;4967846;28;20037;-50
2022/02/21 04:49:35;;;;;;;1.20;0.70;;;;;;;18.63;53.07;100084.00;4968157;28;20239;-50
2022/02/21 04:52:01;;;;;;;1.70;0.80;;;;;;;18.63;53.13;100083.19;4967923;28;20037;-53
2022/02/21 04:54:26;;;;;;;2.58;0.95;;;;;;;18.62;53.18;100089.50;4967796;28;20058;-49
2022/02/21 04:56:52;;;;;;;1.73;1.00;;;;;;;18.61;53.07;100078.13;4967904;28;20027;-52
2022/02/21 04:59:17;;;;;;;2.53;1.02;;;;;;;18.60;53.04;100060.69;4968082;28;20160;-50
2022/02/21 05:01:43;;;;;;;1.38;0.90;;;;;;;18.60;53.05;100059.84;4967786;28;20055;-52
2022/02/21 05:04:08;;;;;;;1.20;0.73;;;;;;;18.59;52.92;100059.03;4967846;28;20040;-44
2022/02/21 05:06:34;;;;;;;2.55;0.93;;;;;;;18.58;53.20;100052.13;4967939;28;20136;-48
2022/02/21 05:08:59;;;;;;;1.52;0.70;;;;;;;18.58;53.15;100047.66;4967910;28;20058;-52
2022/02/21 05:11:25;;;;;;;1.33;0.70;;;;;;;18.58;53.47;100034.47;4967459;28;20027;-46
2022/02/21 05:13:50;;;;;;;1.50;0.68;;;;;;;18.58;53.27;100031.03;4967444;28;20030;-45
2022/02/21 05:16:16;;;;;;;2.65;0.68;;;;;;;18.58;53.19;100028.38;4967425;28;20057;-54
2022/02/21 05:18:41;;;;;;;1.48;0.80;;;;;;;18.61;53.19;100020.09;4967385;28;20023;-47
2022/02/21 05:21:07;;;;;;;1.45;0.80;;;;;;;18.64;53.32;100014.41;4967579;28;20046;-54
2022/02/21 05:23:32;;;;;;;5.18;0.88;;;;;;;18.68;53.29;100006.88;4967783;28;20426;-51
2022/02/21 05:25:58;;;;;;;2.90;0.68;;;;;;;18.75;53.32;100010.31;4967436;28;20164;-52
2022/02/21 05:28:23;;;;;;;3.65;0.80;;;;;;;18.79;53.24;100001.75;4967435;28;20085;-42
2022/02/21 05:30:49;;;;;;;8.88;1.42;;;;;;;18.84;53.30;100004.59;4967155;28;20425;-45
2022/02/21 05:33:15;;;;;;;1.25;0.95;;;;;;;18.90;53.27;99995.81;4967497;28;20031;-53
2022/02/21 05:35:41;;;;;;;5.43;1.02;;;;;;;18.96;53.35;99990.72;4949993;28;20023;-49
2022/02/21 05:38:07;;;;;;;9.57;1.08;;;;;;;19.04;53.29;99979.91;4967421;28;20046;-57
2022/02/21 05:40:32;;;;;;;4.68;1.20;;;;;;;19.11;53.36;99972.75;4969151;28;20038;-42
2022/02/21 05:42:58;;;;;;;5.32;0.98;;;;;;;19.16;53.11;99965.03;4970874;28;20085;-46
2022/02/21 05:45:23;;;;;;;9.68;0.85;;;;;;;19.17;52.83;99961.34;4971069;28;20050;-44
2022/02/21 05:47:48;;;;;;;2.78;1.00;;;;;;;19.18;52.59;99961.16;4970649;28;20503;-44
2022/02/21 05:50:14;;;;;;;10.65;1.10;;;;;;;19.25;52.98;99945.25;4971186;28;20050;-52
2022/02/21 05:52:39;;;;;;;4.97;1.27;;;;;;;19.33;52.91;99942.38;4971002;28;20037;-49
2022/02/21 05:55:06;;;;;;;3.17;0.85;;;;;;;19.38;53.02;99937.22;4970790;28;20042;-40
2022/02/21 05:57:31;;;;;;;5.95;1.25;;;;;;;19.40;52.69;99929.09;4969660;28;20034;-45
2022/02/21 05:59:59;;;;;;;8.98;1.02;;;;;;;19.41;52.65;99931.50;4970748;28;20039;-45
2022/02/21 06:02:24;;;;;;;2.53;0.70;;;;;;;19.42;52.42;99917.28;4970636;28;20518;-46
2022/02/21 06:04:50;;;;;;;2.75;1.05;;;;;;;19.45;52.32;99908.94;4970439;28;20058;-52
2022/02/21 06:07:17;;;;;;;3.90;0.73;;;;;;;19.47;52.31;99908.72;4970573;28;20482;-55
2022/02/21 06:09:44;;;;;;;2.03;1.15;;;;;;;19.48;52.21;99895.28;4953340;28;20450;-57
2022/02/21 06:12:11;;;;;;;2.67;1.00;;;;;;;19.51;52.16;99892.25;4952910;28;20247;-51
2022/02/21 06:14:37;;;;;;;1.10;0.75;;;;;;;19.54;52.08;99883.91;4970748;28;20026;-54
2022/02/21 06:17:02;;;;;;;0.88;0.50;;;;;;;19.58;51.89;99884.28;4970725;28;20493;-53
2022/02/21 06:19:28;;;;;;;2.70;0.80;;;;;;;19.62;51.79;99885.44;4970913;28;20041;-53
2022/02/21 06:21:54;;;;;;;2.67;0.85;;;;;;;19.66;51.85;99883.19;4970658;28;20108;-50
2022/02/21 06:24:20;;;;;;;2.20;0.63;;;;;;;19.69;51.73;99880.13;4970863;28;20054;-60
2022/02/21 06:26:45;;;;;;;1.88;0.98;;;;;;;19.71;51.73;99880.72;4970871;28;20403;-49
2022/02/21 06:29:11;;;;;;;1.40;0.80;;;;;;;19.75;51.45;99884.53;4970873;28;20100;-43
2022/02/21 06:31:36;;;;;;;1.58;0.88;;;;;;;19.80;51.42;99882.03;4970706;28;20392;-55
2022/02/21 06:34:01;;;;;;;3.30;0.73;;;;;;;19.85;51.51;99879.53;4970375;28;20026;-57
2022/02/21 06:36:27;;;;;;;1.75;0.98;;;;;;;19.88;51.52;99879.09;4970954;28;20038;-55
2022/02/21 06:38:52;;;;;;;2.33;0.77;;;;;;;19.89;51.58;99870.94;4970879;28;20445;-53
2022/02/21 06:41:18;;;;;;;1.00;0.60;;;;;;;19.91;51.11;99878.66;4953086;28;20439;-55
2022/02/21 06:43:44;;;;;;;1.27;0.60;;;;;;;19.95;51.32;99884.31;4952653;28;20066;-49
2022/02/21 06:46:09;;;;;;;1.83;0.70;;;;;;;19.97;51.20;99879.63;4970436;28;20073;-54
2022/02/21 06:48:35;;;;;;;2.72;0.70;;;;;;;19.99;50.99;99870.44;4970379;28;20166;-46
2022/02/21 06:51:01;;;;;;;1.17;0.70;;;;;;;20.02;50.94;99875.28;4969943;28;20026;-46
2022/02/21 06:53:27;;;;;;;1.60;0.73;;;;;;;20.04;51.14;99867.13;4952111;28;20426;-51
2022/02/21 06:55:52;;;;;;;2.40;1.02;;;;;;;20.06;51.20;99862.44;4970769;28;20439;-53
2022/02/21 06:58:18;;;;;;;1.40;0.68;;;;;;;20.08;51.08;99860.38;4970726;28;20034;-54
2022/02/21 07:00:43;;;;;;;2.00;0.60;;;;;;;20.09;50.86;99857.50;4970499;28;20038;-56
2022/02/21 07:03:09;;;;;;;1.88;0.90;;;;;;;20.10;50.80;99861.78;4970167;28;20570;-52
2022/02/21 07:05:34;;;;;;;2.30;0.80;;;;;;;20.12;51.08;99857.06;4952534;28;20027;-61
2022/02/21 07:08:00;;;;;;;2.78;1.00;;;;;;;20.13;51.01;99853.41;4970341;28;20166;-56
2022/02/21 07:10:25;;;;;;;1.35;0.80;;;;;;;20.13;50.88;99842.81;4970025;28;20031;-49
2022/02/21 07:12:51;;;;;;;1.80;0.88;;;;;;;20.15;50.67;99838.13;4970166;28;20502;-52
2022/02/21 07:15:17;;;;;;;1.67;0.90;;;;;;;20.14;50.76;99841.78;4969600;28;20097;-61
2022/02/21 07:17:42;;;;;;;2.65;1.13;;;;;;;20.12;50.82;99835.91;4969988;28;20034;-49
2022/02/21 07:20:12;;;;;;;2.33;0.80;;;;;;;20.13;50.82;99834.88;4970140;28;20092;-58
2022/02/21 07:22:39;;;;;;;3.88;0.85;;;;;;;20.11;50.71;99836.94;4969939;28;20486;-52
2022/02/21 07:25:05;;;;;;;1.73;0.80;;;;;;;20.13;50.86;99836.72;4969460;28;20137;-51
2022/02/21 07:27:31;;;;;;;5.80;0.88;;;;;;;20.14;50.90;99831.22;4969660;28;20038;-49
2022/02/21 07:29:56;;;;;;;3.70;0.80;;;;;;;20.16;50.79;99828.34;4969608;28;20031;-53
2022/02/21 07:32:22;;;;;;;2.78;0.55;;;;;;;20.16;51.15;99829.16;4952138;28;20049;-44
2022/02/21 07:34:47;;;;;;;2.80;0.70;;;;;;;20.18;51.52;99835.03;4969551;28;20522;-45
2022/02/21 07:37:13;;;;;;;2.67;1.08;;;;;;;20.20;51.57;99832.16;4969273;28;20134;-44
2022/02/21 07:39:38;;;;;;;3.78;1.00;;;;;;;20.19;52.04;99818.13;4968884;28;20490;-55
2022/02/21 07:42:04;;;;;;;2.15;1.00;;;;;;;20.18;52.06;99816.53;4968981;28;20213;-47
2022/02/21 07:44:31;;;;;;;2.33;0.90;;;;;;;20.16;52.15;99813.28;4968912;28;20138;-47
2022/02/21 07:46:57;;;;;;;1.75;0.90;;;;;;;20.15;52.08;99805.56;4968921;28;20035;-47
2022/02/21 07:49:22;;;;;;;3.05;0.75;;;;;;;20.15;52.05;99808.22;4969111;28;20035;-54
2022/02/21 07:51:48;;;;;;;2.05;0.73;;;;;;;20.13;52.16;99808.44;4968913;28;20030;-45
2022/02/21 07:54:13;;;;;;;3.20;0.90;;;;;;;20.12;51.96;99804.19;4951008;28;20038;-46
2022/02/21 07:56:39;;;;;;;2.28;0.60;;;;;;;20.12;52.16;99806.81;4951270;28;20089;-51
2022/02/21 07:59:04;;;;;;;5.78;0.80;;;;;;;20.13;52.00;99805.81;4935101;28;20065;-43
2022/02/21 08:01:30;;;;;;;3.70;0.70;;;;;;;20.13;51.99;99803.16;4968801;28;20089;-44
2022/02/21 08:03:55;;;;;;;2.50;1.08;;;;;;;20.12;52.50;99793.59;4950689;28;20033;-48
2022/02/21 08:06:21;;;;;;;1.50;0.80;;;;;;;20.12;52.65;99798.09;4968429;28;20038;-47
2022/02/21 08:08:47;;;;;;;2.28;0.88;;;;;;;20.12;52.45;99796.25;4968760;28;20465;-50
2022/02/21 08:11:13;;;;;;;1.85;1.00;;;;;;;20.10;52.48;99784.28;4950988;28;20034;-45
2022/02/21 08:13:38;;;;;;;2.10;0.65;;;;;;;20.08;52.21;99779.22;4968341;28;20097;-52
2022/02/21 08:16:04;;;;;;;4.25;1.40;;;;;;;20.06;51.93;99762.75;4951258;28;20114;-51
2022/02/21 08:18:30;;;;;;;4.68;2.05;;;;;;;20.06;51.71;99768.06;4968455;28;20066;-47
2022/02/21 08:20:55;;;;;;;3.50;1.48;;;;;;;20.06;51.46;99765.41;4968473;28;20167;-56
2022/02/21 08:23:21;;;;;;;3.92;1.60;;;;;;;20.07;51.48;99763.56;4968694;28;20442;-42
2022/02/21 08:25:46;;;;;;;4.30;1.30;;;;;;;20.06;51.36;99757.47;4968944;28;20182;-46
2022/02/21 08:28:12;;;;;;;5.55;1.50;;;;;;;20.07;51.35;99758.28;4968753;28;20549;-50
2022/02/21 08:30:37;;;;;;;3.45;1.20;;;;;;;20.07;51.24;99756.44;4968575;28;20027;-45
2022/02/21 08:33:03;;;;;;;2.53;1.30;;;;;;;20.06;51.32;99744.25;4968399;28;20049;-49
2022/02/21 08:35:28;;;;;;;2.45;1.33;;;;;;;20.07;51.09;99740.56;4968252;28;20038;-47
2022/02/21 08:37:54;;;;;;;3.33;1.35;;;;;;;20.07;51.58;99730.00;4968233;28;20118;-45
2022/02/21 08:40:22;;;;;;;9.20;2.50;;;;;;;20.09;51.47;99730.59;4967982;28;20105;-45
2022/02/21 08:42:48;;;;;;;7.82;2.83;;;;;;;20.10;51.30;99724.25;4967925;28;20098;-48
2022/02/21 08:45:14;;;;;;;7.15;2.75;;;;;;;20.09;51.40;99722.66;4968142;28;20027;-47
2022/02/21 08:47:40;;;;;;;10.95;3.55;;;;;;;20.08;51.46;99710.47;4968164;28;20038;-50
2022/02/21 08:50:10;;;;;;;15.95;3.50;;;;;;;20.06;51.22;99706.44;4968216;28;20126;-49
2022/02/21 08:52:38;;;;;;;15.90;4.93;;;;;;;20.05;51.32;99702.97;4950599;28;20048;-43
2022/02/21 08:55:05;;;;;;;9.98;3.53;;;;;;;20.05;51.23;99695.03;4950658;28;20451;-54
2022/02/21 08:57:30;;;;;;;9.98;3.60;;;;;;;20.05;51.05;99688.94;4967903;28;20471;-42
2022/02/21 08:59:56;;;;;;;8.05;2.55;;;;;;;20.04;51.22;99682.03;4967660;28;20047;-50
2022/02/21 09:02:21;;;;;;;10.98;2.75;;;;;;;20.05;51.44;99673.09;4967887;28;20030;-49
2022/02/21 09:04:47;;;;;;;4.28;2.30;;;;;;;20.04;51.65;99674.91;4967916;28;20427;-53
2022/02/21 09:07:12;;;;;;;5.03;2.22;;;;;;;20.02;51.70;99676.97;4967876;28;20023;-51
2022/02/21 09:09:38;;;;;;;7.45;1.98;;;;;;;20.01;51.63;99677.19;4968072;28;20475;-46
2022/02/21 09:12:04;;;;;;;6.35;1.75;;;;;;;19.99;51.51;99666.84;4967362;28;20592;-55
2022/02/21 09:14:30;;;;;;;4.65;2.15;;;;;;;19.98;51.65;99667.06;4968462;28;20041;-55
2022/02/21 09:16:55;;;;;;;5.15;1.92;;;;;;;19.97;51.96;99660.97;4971868;28;20530;-51
2022/02/21 09:19:21;;;;;;;5.40;1.73;;;;;;;19.96;51.77;99658.56;4954121;28;20491;-50
2022/02/21 09:21:47;;;;;;;2.58;1.60;;;;;;;19.93;51.98;99654.53;4971970;28;20147;-45
2022/02/21 09:24:12;;;;;;;4.07;1.90;;;;;;;19.91;51.84;99648.66;4971445;28;20027;-50
2022/02/21 09:26:38;;;;;;;2.88;1.70;;;;;;;19.90;51.81;99644.41;4971426;28;20034;-48
2022/02/21 09:29:03;;;;;;;5.22;2.30;;;;;;;19.89;51.90;99651.53;4971789;28;20031;-45
2022/02/21 09:31:29;;;;;;;2.75;1.30;;;;;;;19.88;51.85;99651.75;4971890;28;20053;-48
2022/02/21 09:33:54;;;;;;;3.45;1.63;;;;;;;19.86;51.83;99648.53;4971306;28;20342;-49
2022/02/21 09:36:20;;;;;;;4.25;1.70;;;;;;;19.85;51.85;99644.28;4971275;28;20330;-53
2022/02/21 09:38:45;;;;;;;3.72;1.85;;;;;;;19.84;51.91;99642.69;4971063;28;20050;-45
2022/02/21 09:41:11;;;;;;;4.80;1.45;;;;;;;19.83;51.55;99638.44;4971271;28;20034;-45
2022/02/21 09:43:36;;;;;;;3.50;1.30;;;;;;;19.82;51.65;99637.63;4971560;28;20117;-48
2022/02/21 09:46:07;;;;;;;3.92;1.60;;;;;;;19.81;51.63;99632.56;4970986;28;20454;-50
2022/02/21 09:48:36;;;;;;;2.17;1.27;;;;;;;19.79;51.56;99627.50;4971240;28;20482;-39
2022/02/21 09:51:02;;;;;;;2.40;1.10;;;;;;;19.78;51.52;99625.09;4953604;28;20064;-48
2022/02/21 09:53:30;;;;;;;2.72;1.45;;;;;;;19.78;51.63;99619.78;4971112;28;20334;-56
2022/02/21 09:55:56;;;;;;;2.83;1.13;;;;;;;19.76;51.46;99611.28;4970905;28;20026;-51
2022/02/21 09:58:23;;;;;;;3.85;1.33;;;;;;;19.75;51.48;99615.75;4970865;28;20049;-44
2022/02/21 10:00:50;;;;;;;2.78;1.48;;;;;;;19.74;51.50;99603.56;4970704;28;20027;-41
2022/02/21 10:03:37;;;;;;;2.63;1.52;;;;;;;19.71;51.50;99593.47;4971171;28;20109;-40
2022/02/21 10:06:20;;;;;;;1.60;1.15;;;;;;;19.70;51.38;99585.75;4970865;28;20301;-51
2022/02/21 10:09:12;;;;;;;3.30;1.17;;;;;;;19.69;51.41;99582.31;4970522;28;20033;-50
2022/02/21 10:11:41;;;;;;;3.63;1.63;;;;;;;19.69;51.36;99570.94;4952976;28;20039;-41
2022/02/21 10:14:13;;;;;;;3.95;1.02;;;;;;;19.69;51.51;99578.84;4970794;28;20494;-50
2022/02/21 10:16:59;;;;;;;1.90;1.30;;;;;;;19.66;51.23;99579.31;4970822;28;20054;-43
2022/02/21 10:19:27;;;;;;;1.95;1.00;;;;;;;19.67;51.46;99565.06;4970948;28;20038;-46
2022/02/21 10:22:04;;;;;;;2.38;1.50;;;;;;;19.67;51.41;99573.00;4953013;28;20037;-51
2022/02/21 10:24:42;;;;;;;3.72;2.03;;;;;;;19.65;51.22;99567.13;4970350;28;20525;-46
2022/02/21 10:27:14;;;;;;;2.75;1.58;;;;;;;19.64;51.09;99570.78;4970139;28;20050;-49
2022/02/21 10:29:50;;;;;;;2.60;1.70;;;;;;;19.62;51.16;99565.72;4970761;28;20189;-50
2022/02/21 10:32:23;;;;;;;2.22;1.63;;;;;;;19.63;51.02;99569.19;4970505;28;20041;-53
2022/02/21 10:34:49;;;;;;;3.50;1.45;;;;;;;19.63;51.08;99569.97;4970329;28;20093;-47
2022/02/21 10:37:21;;;;;;;2.45;1.67;;;;;;;19.63;51.12;99558.63;4952857;28;20434;-52
2022/02/21 10:39:46;;;;;;;2.42;1.55;;;;;;;19.62;50.98;99554.34;4970293;28;20497;-44
2022/02/21 10:42:12;;;;;;;2.17;1.23;;;;;;;19.62;51.17;99547.22;4969845;28;20034;-42
2022/02/21 10:44:40;;;;;;;2.90;1.70;;;;;;;19.64;51.09;99549.66;4969896;28;20034;-49
2022/02/21 10:47:11;;;;;;;3.60;1.85;;;;;;;19.61;50.92;99550.91;4970371;28;20089;-52
2022/02/21 10:49:43;;;;;;;2.53;1.63;;;;;;;19.63;50.91;99548.84;4969973;28;20062;-45
2022/02/21 10:52:18;;;;;;;4.03;1.40;;;;;;;19.62;50.97;99551.72;4970287;28;20045;-56
2022/02/21 10:54:44;;;;;;;5.82;2.58;;;;;;;19.62;50.78;99554.34;4970045;28;20034;-42
2022/02/21 10:57:11;;;;;;;1.92;1.60;;;;;;;19.61;50.70;99550.91;4969778;28;20058;-51
2022/02/21 10:59:38;;;;;;;3.50;1.83;;;;;;;19.60;50.71;99543.22;4967982;28;20114;-46
2022/02/21 11:02:06;;;;;;;3.20;2.13;;;;;;;19.58;50.59;99550.56;4969573;28;20537;-46
2022/02/21 11:04:33;;;;;;;3.90;2.17;;;;;;;19.56;50.79;99542.84;4967567;28;20034;-48
2022/02/21 11:06:59;;;;;;;3.88;1.83;;;;;;;19.55;50.77;99535.94;4965303;28;20671;-47
2022/02/21 11:09:27;;;;;;;2.30;1.50;;;;;;;19.54;50.64;99527.22;4956987;28;20023;-43
2022/02/21 11:11:54;;;;;;;3.63;1.60;;;;;;;19.53;50.67;99524.81;4969205;28;20077;-51
2022/02/21 11:14:25;;;;;;;4.13;2.25;;;;;;;19.53;50.65;99520.31;4971133;28;20495;-55
2022/02/21 11:16:51;;;;;;;4.88;2.17;;;;;;;19.52;50.78;99518.72;4974059;28;20035;-47
2022/02/21 11:19:17;;;;;;;3.35;2.17;;;;;;;19.50;50.69;99510.19;4975703;28;20045;-46
2022/02/21 11:21:44;;;;;;;2.90;1.88;;;;;;;19.50;50.77;99512.81;4967076;28;20090;-48
2022/02/21 11:24:16;;;;;;;3.33;1.63;;;;;;;19.50;50.90;99515.47;4968508;28;20133;-47
2022/02/21 11:27:37;;;;;;;3.95;2.40;;;;;;;19.47;50.72;99515.91;4969331;28;20364;-51
2022/02/21 11:30:14;;;;;;;3.92;2.15;;;;;;;19.45;50.91;99499.47;4908757;29;20043;-55